Time;durP1;ratioP1;P1;durP2;ratioP2;P2;SDS_P1;SDS_P2;PMS_P1;PMS_P2;Temp;Humidity;BMP_temperature;BMP_pressure;BME280_temperature;BME280_humidity;BME280_pressure;Samples;Min_cycle;Max_cycle;Signal;HPM_P1;HPM_P2
2023/07/03 00:02:13;;;;;;;0.40;0.20;;;;;;;14.89;81.58;99823.63;5074979;28;20504;-49
2023/07/03 00:04:45;;;;;;;0.50;0.20;;;;;;;14.96;81.37;99822.38;5074875;28;20472;-50
2023/07/03 00:07:14;;;;;;;0.50;0.20;;;;;;;14.92;81.37;99817.25;5074463;28;20525;-50
2023/07/03 00:09:43;;;;;;;0.40;0.20;;;;;;;14.90;81.44;99817.34;5074822;28;20565;-51
2023/07/03 00:12:10;;;;;;;0.40;0.20;;;;;;;14.85;81.62;99814.06;5072209;28;20862;-50
2023/07/03 00:14:38;;;;;;;0.50;0.20;;;;;;;14.89;81.62;99826.31;5073043;28;20465;-51
2023/07/03 00:17:07;;;;;;;0.40;0.20;;;;;;;14.91;81.94;99823.53;5074431;28;20469;-50
2023/07/03 00:19:34;;;;;;;0.40;0.20;;;;;;;14.74;81.89;99821.78;5074443;28;20481;-51
2023/07/03 00:22:01;;;;;;;0.40;0.20;;;;;;;14.64;82.89;99817.84;5074326;28;20487;-51
2023/07/03 00:24:29;;;;;;;0.40;0.20;;;;;;;14.73;82.39;99817.38;5074327;28;20465;-50
2023/07/03 00:26:56;;;;;;;0.40;0.20;;;;;;;14.57;82.76;99820.00;5074077;28;20519;-50
2023/07/03 00:29:23;;;;;;;0.50;0.20;;;;;;;14.41;83.61;99809.22;5073808;28;20481;-50
2023/07/03 00:31:50;;;;;;;0.40;0.20;;;;;;;14.46;83.49;99815.22;5072456;28;20552;-49
2023/07/03 00:34:18;;;;;;;0.50;0.30;;;;;;;14.18;83.98;99820.22;5067927;28;20465;-50
2023/07/03 00:36:45;;;;;;;0.40;0.20;;;;;;;14.10;84.54;99809.91;5074432;28;20462;-50
2023/07/03 00:39:12;;;;;;;0.40;0.20;;;;;;;14.19;84.05;99814.78;5074182;28;20531;-50
2023/07/03 00:41:38;;;;;;;0.40;0.20;;;;;;;14.43;83.75;99809.13;5074241;28;20496;-50
2023/07/03 00:44:09;;;;;;;0.40;0.20;;;;;;;14.47;83.95;99816.06;5072211;28;20465;-49
2023/07/03 00:46:37;;;;;;;0.60;0.60;;;;;;;14.60;83.32;99813.63;5067606;28;20493;-50
2023/07/03 00:49:04;;;;;;;0.40;0.20;;;;;;;14.61;83.80;99810.00;5072017;28;20933;-50
2023/07/03 00:51:31;;;;;;;0.40;0.20;;;;;;;14.58;83.96;99818.19;5074243;28;20493;-50
2023/07/03 00:53:58;;;;;;;0.40;0.20;;;;;;;14.61;84.48;99815.34;5073883;28;20515;-50
2023/07/03 00:56:24;;;;;;;0.40;0.20;;;;;;;14.57;84.63;99808.44;5073903;28;20466;-50
2023/07/03 00:58:51;;;;;;;0.40;0.20;;;;;;;14.65;84.80;99814.22;5073757;28;20568;-51
2023/07/03 01:01:37;;;;;;;0.40;0.20;;;;;;;14.94;84.01;99823.38;5073627;28;20497;-50
2023/07/03 01:04:11;;;;;;;0.40;0.20;;;;;;;14.32;85.62;99817.69;5074131;28;20465;-50
2023/07/03 01:06:44;;;;;;;0.40;0.20;;;;;;;14.57;85.71;99819.13;5073577;28;20490;-51
2023/07/03 01:09:14;;;;;;;0.40;0.20;;;;;;;14.65;85.30;99823.13;5072148;28;20548;-50
2023/07/03 01:11:43;;;;;;;0.40;0.20;;;;;;;14.67;85.58;99823.06;5073447;28;20465;-50
2023/07/03 01:14:13;;;;;;;0.40;0.20;;;;;;;14.71;85.61;99822.81;5073464;28;20457;-50
2023/07/03 01:16:39;;;;;;;0.40;0.20;;;;;;;14.78;85.73;99826.00;5066227;28;20872;-50
2023/07/03 01:19:13;;;;;;;0.40;0.20;;;;;;;14.99;85.21;99813.31;5073393;28;20485;-50
2023/07/03 01:21:47;;;;;;;0.40;0.20;;;;;;;15.14;84.24;99811.59;5073691;28;20468;-51
2023/07/03 01:24:27;;;;;;;0.40;0.20;;;;;;;15.17;84.77;99822.13;5073197;28;20462;-51
2023/07/03 01:26:53;;;;;;;0.40;0.20;;;;;;;15.14;84.62;99817.81;5073565;28;20509;-51
2023/07/03 01:29:21;;;;;;;0.40;0.20;;;;;;;15.27;84.29;99823.38;5073161;28;20485;-50
2023/07/03 01:31:49;;;;;;;0.40;0.20;;;;;;;15.43;84.07;99826.06;5073157;28;20498;-50
2023/07/03 01:34:17;;;;;;;0.40;0.20;;;;;;;15.41;84.14;99820.78;5066734;28;20961;-50
2023/07/03 01:36:44;;;;;;;0.40;0.20;;;;;;;15.42;84.25;99819.81;5073060;28;20457;-50
2023/07/03 01:39:10;;;;;;;0.40;0.20;;;;;;;15.35;84.95;99819.31;5072793;28;20489;-50
2023/07/03 01:41:37;;;;;;;0.40;0.20;;;;;;;15.26;85.04;99827.84;5073016;28;20967;-50
2023/07/03 01:44:04;;;;;;;1.73;1.63;;;;;;;15.03;85.76;99817.53;5072921;28;20524;-49
2023/07/03 01:46:30;;;;;;;0.40;0.20;;;;;;;14.81;86.52;99815.16;5072925;28;20580;-49
2023/07/03 01:48:57;;;;;;;0.40;0.20;;;;;;;14.68;87.40;99817.63;5072735;28;20470;-50
2023/07/03 01:51:35;;;;;;;0.40;0.20;;;;;;;14.65;87.59;99815.09;5072518;28;20472;-50
2023/07/03 01:54:11;;;;;;;0.40;0.20;;;;;;;14.63;87.54;99808.09;5068691;28;20595;-50
2023/07/03 01:56:41;;;;;;;0.50;0.40;;;;;;;14.40;87.63;99810.16;5072635;28;20954;-52
2023/07/03 01:59:14;;;;;;;0.40;0.20;;;;;;;14.46;86.94;99817.03;5071267;28;20490;-51
2023/07/03 02:02:20;;;;;;;0.40;0.20;;;;;;;14.39;88.05;99813.78;5069646;28;20541;-51
2023/07/03 02:04:57;;;;;;;0.40;0.20;;;;;;;14.42;87.24;99818.09;5072209;28;20465;-50
2023/07/03 02:07:27;;;;;;;0.40;0.20;;;;;;;14.30;88.06;99819.59;5072285;28;20550;-49
2023/07/03 02:09:53;;;;;;;0.40;0.20;;;;;;;14.37;87.59;99822.81;5072331;28;20837;-50
2023/07/03 02:12:20;;;;;;;0.40;0.20;;;;;;;14.32;87.89;99819.50;5062461;28;20958;-50
2023/07/03 02:14:46;;;;;;;0.40;0.20;;;;;;;14.21;87.90;99822.72;5070424;28;20493;-50
2023/07/03 02:17:13;;;;;;;0.40;0.20;;;;;;;14.16;87.98;99830.13;5072021;28;20493;-50
2023/07/03 02:19:39;;;;;;;1.90;1.30;;;;;;;14.19;87.73;99835.31;5072267;28;20489;-50
2023/07/03 02:22:07;;;;;;;0.40;0.20;;;;;;;14.30;87.89;99832.09;5072467;28;20802;-50
2023/07/03 02:24:34;;;;;;;0.40;0.20;;;;;;;14.34;87.27;99839.88;5053060;22;20500;-50
2023/07/03 02:27:00;;;;;;;0.40;0.20;;;;;;;14.46;86.69;99844.63;5021415;28;20496;-50
2023/07/03 02:29:27;;;;;;;0.40;0.30;;;;;;;14.33;87.87;99842.63;5025923;28;20477;-50
2023/07/03 02:31:53;;;;;;;0.40;0.20;;;;;;;14.22;88.13;99852.06;5023601;28;20475;-50
2023/07/03 02:34:21;;;;;;;0.40;0.20;;;;;;;14.25;88.21;99851.03;5026854;28;20479;-50
2023/07/03 02:36:48;;;;;;;0.40;0.20;;;;;;;14.31;88.66;99858.75;5032113;28;20513;-50
2023/07/03 02:39:15;;;;;;;0.70;0.63;;;;;;;14.26;88.65;99851.94;5032018;28;20537;-51
2023/07/03 02:41:41;;;;;;;0.40;0.27;;;;;;;14.18;89.12;99849.63;5031948;28;20467;-50
2023/07/03 02:44:07;;;;;;;0.40;0.20;;;;;;;14.20;88.95;99858.44;5028717;28;20569;-50
2023/07/03 02:46:34;;;;;;;0.40;0.20;;;;;;;14.13;88.85;99857.88;5025587;28;20495;-50
2023/07/03 02:49:00;;;;;;;0.40;0.20;;;;;;;14.16;88.76;99859.53;5027717;28;21010;-49
2023/07/03 02:51:27;;;;;;;0.50;0.50;;;;;;;14.32;88.01;99852.47;5031829;28;20470;-50
2023/07/03 02:53:53;;;;;;;0.40;0.20;;;;;;;14.37;87.90;99849.53;5026200;28;20491;-50
2023/07/03 02:56:20;;;;;;;0.40;0.20;;;;;;;14.40;87.71;99854.75;5032336;28;20465;-50
2023/07/03 02:58:46;;;;;;;0.40;0.20;;;;;;;14.46;87.48;99852.66;5032243;28;20468;-50
2023/07/03 03:01:13;;;;;;;0.40;0.20;;;;;;;14.38;87.88;99851.25;5032300;28;20546;-50
2023/07/03 03:03:39;;;;;;;0.40;0.20;;;;;;;14.40;88.07;99863.66;5031843;28;20488;-50
2023/07/03 03:06:06;;;;;;;0.40;0.20;;;;;;;14.38;88.34;99868.19;5031785;28;20494;-50
2023/07/03 03:08:32;;;;;;;0.40;0.20;;;;;;;14.22;88.13;99862.75;5031740;28;20848;-51
2023/07/03 03:11:00;;;;;;;0.40;0.30;;;;;;;14.26;88.88;99860.81;5032000;28;20536;-50
2023/07/03 03:13:26;;;;;;;0.40;0.20;;;;;;;14.14;89.29;99853.41;5031764;28;20487;-50
2023/07/03 03:15:53;;;;;;;0.40;0.20;;;;;;;14.23;88.92;99859.13;5031995;28;20471;-50
2023/07/03 03:18:20;;;;;;;0.40;0.20;;;;;;;14.16;89.05;99860.41;5031961;28;20472;-50
2023/07/03 03:20:47;;;;;;;0.40;0.20;;;;;;;14.07;89.75;99857.31;5031859;28;20550;-50
2023/07/03 03:23:13;;;;;;;0.40;0.20;;;;;;;14.24;89.01;99863.53;5031519;28;20496;-50
2023/07/03 03:25:42;;;;;;;0.40;0.20;;;;;;;14.29;88.93;99865.13;5031654;28;20912;-50
2023/07/03 03:28:09;;;;;;;0.40;0.20;;;;;;;14.37;89.56;99861.09;5031812;28;20513;-50
2023/07/03 03:30:35;;;;;;;0.50;0.43;;;;;;;14.41;88.73;99857.34;5031688;28;21149;-50
2023/07/03 03:33:02;;;;;;;0.40;0.20;;;;;;;14.33;89.08;99854.19;5032879;28;20465;-50
2023/07/03 03:35:29;;;;;;;0.40;0.20;;;;;;;14.37;89.19;99855.75;5031109;28;20468;-50
2023/07/03 03:37:55;;;;;;;0.40;0.20;;;;;;;14.34;89.56;99855.06;5031825;28;20495;-50
2023/07/03 03:40:22;;;;;;;0.40;0.20;;;;;;;14.41;89.63;99853.81;5031486;28;20870;-50
2023/07/03 03:42:48;;;;;;;0.40;0.20;;;;;;;14.58;88.62;99852.97;5031800;28;20463;-50
2023/07/03 03:45:15;;;;;;;0.40;0.20;;;;;;;14.67;88.19;99863.19;5031633;28;20487;-50
2023/07/03 03:47:41;;;;;;;0.40;0.20;;;;;;;14.61;88.21;99853.66;5030665;28;20491;-51
2023/07/03 03:50:08;;;;;;;0.40;0.20;;;;;;;14.52;88.29;99854.13;5027735;28;20472;-50
2023/07/03 03:52:35;;;;;;;0.40;0.20;;;;;;;14.41;89.14;99862.69;5023504;28;20507;-50
2023/07/03 03:55:01;;;;;;;0.40;0.20;;;;;;;14.50;88.95;99856.03;5031435;28;20502;-50
2023/07/03 03:57:27;;;;;;;0.40;0.20;;;;;;;14.38;89.08;99851.25;5031312;28;20525;-50
2023/07/03 03:59:54;;;;;;;0.40;0.20;;;;;;;14.19;89.88;99843.34;5031036;28;20978;-51
2023/07/03 04:02:20;;;;;;;0.40;0.20;;;;;;;14.13;90.23;99849.88;5031297;28;20463;-50
2023/07/03 04:04:47;;;;;;;0.40;0.20;;;;;;;14.27;90.26;99857.19;5031395;28;20526;-50
2023/07/03 04:07:13;;;;;;;0.40;0.20;;;;;;;14.34;89.86;99863.06;5035094;28;20513;-50
2023/07/03 04:09:40;;;;;;;0.40;0.20;;;;;;;14.42;89.33;99858.22;5035146;28;20471;-50
2023/07/03 04:12:07;;;;;;;0.40;0.20;;;;;;;14.53;88.84;99858.56;5035440;28;20521;-50
2023/07/03 04:14:34;;;;;;;0.40;0.20;;;;;;;14.82;87.96;99857.91;5031414;28;20495;-50
2023/07/03 04:17:01;;;;;;;0.40;0.20;;;;;;;14.91;87.65;99858.34;5034887;28;20463;-50
2023/07/03 04:19:28;;;;;;;0.40;0.20;;;;;;;14.97;87.65;99866.91;5034593;28;20538;-51
2023/07/03 04:21:55;;;;;;;0.40;0.20;;;;;;;14.84;88.73;99865.84;5035105;28;20467;-50
2023/07/03 04:24:21;;;;;;;0.40;0.20;;;;;;;15.05;88.13;99870.03;5034313;28;21069;-51
2023/07/03 04:26:48;;;;;;;0.40;0.20;;;;;;;15.24;87.40;99866.38;5034660;28;20527;-51
2023/07/03 04:29:14;;;;;;;0.40;0.20;;;;;;;15.25;87.19;99870.78;5034409;28;20471;-50
2023/07/03 04:31:41;;;;;;;0.40;0.20;;;;;;;15.32;87.19;99862.31;5034638;28;20506;-51
2023/07/03 04:34:07;;;;;;;0.40;0.20;;;;;;;15.46;87.06;99864.22;5018330;28;20491;-50
2023/07/03 04:36:34;;;;;;;0.40;0.20;;;;;;;15.57;87.02;99875.22;5026543;28;20474;-51
2023/07/03 04:39:00;;;;;;;0.40;0.20;;;;;;;15.46;87.07;99882.97;5034343;28;20976;-51
2023/07/03 04:41:28;;;;;;;0.40;0.20;;;;;;;15.46;87.11;99874.09;5034536;28;20463;-50
2023/07/03 04:43:57;;;;;;;0.40;0.20;;;;;;;15.57;86.63;99880.59;5034402;28;20493;-50
2023/07/03 04:46:27;;;;;;;0.40;0.20;;;;;;;15.67;86.82;99881.84;5034313;28;20893;-50
2023/07/03 04:48:59;;;;;;;0.40;0.20;;;;;;;15.83;85.70;99880.97;5034340;28;20975;-51
2023/07/03 04:51:30;;;;;;;0.40;0.20;;;;;;;15.79;85.09;99877.59;5034181;28;20948;-51
2023/07/03 04:53:59;;;;;;;0.40;0.20;;;;;;;15.86;84.28;99892.38;5034770;28;20852;-51
2023/07/03 04:56:28;;;;;;;37.40;4.93;;;;;;;16.24;83.01;99892.84;5034100;28;20491;-51
2023/07/03 04:58:54;;;;;;;0.40;0.20;;;;;;;16.17;83.38;99890.59;5034164;28;20546;-51
2023/07/03 05:01:22;;;;;;;0.40;0.20;;;;;;;16.33;83.09;99902.19;5034337;28;20486;-51
2023/07/03 05:03:48;;;;;;;0.40;0.20;;;;;;;16.45;83.31;99909.53;5034164;28;20487;-51
2023/07/03 05:06:15;;;;;;;0.40;0.20;;;;;;;16.48;82.76;99908.47;5033796;28;20474;-51
2023/07/03 05:08:41;;;;;;;0.40;0.20;;;;;;;16.76;81.37;99910.41;5034145;28;20467;-50
2023/07/03 05:11:08;;;;;;;0.40;0.20;;;;;;;16.91;81.12;99906.81;5033809;28;20977;-51
2023/07/03 05:13:34;;;;;;;0.40;0.20;;;;;;;17.17;79.66;99916.81;5041757;28;20519;-50
2023/07/03 05:16:01;;;;;;;0.40;0.20;;;;;;;17.34;79.32;99917.59;5033435;28;20554;-50
2023/07/03 05:18:28;;;;;;;0.40;0.20;;;;;;;17.55;77.50;99918.06;5033811;28;20477;-51
2023/07/03 05:20:54;;;;;;;0.40;0.20;;;;;;;17.11;79.00;99924.38;5033592;28;20604;-51
2023/07/03 05:23:21;;;;;;;0.40;0.20;;;;;;;17.17;78.60;99924.88;5015668;28;20561;-50
2023/07/03 05:25:47;;;;;;;0.40;0.20;;;;;;;17.08;79.00;99919.19;5033747;28;20459;-51
2023/07/03 05:28:15;;;;;;;0.40;0.20;;;;;;;17.06;79.12;99926.47;5033423;28;20995;-51
2023/07/03 05:30:41;;;;;;;0.40;0.20;;;;;;;17.25;78.77;99921.69;5033368;28;20963;-51
2023/07/03 05:33:10;;;;;;;0.40;0.20;;;;;;;17.71;77.51;99918.84;5034626;28;20499;-51
2023/07/03 05:35:38;;;;;;;0.40;0.20;;;;;;;17.49;77.49;99924.69;5030291;28;20562;-51
2023/07/03 05:38:16;;;;;;;0.40;0.20;;;;;;;17.50;75.83;99930.91;5033140;28;20455;-51
2023/07/03 05:40:44;;;;;;;0.40;0.20;;;;;;;17.41;76.90;99924.31;5033236;28;20494;-51
2023/07/03 05:43:11;;;;;;;0.40;0.20;;;;;;;17.87;74.60;99926.78;5033181;28;20495;-51
2023/07/03 05:45:37;;;;;;;0.40;0.20;;;;;;;17.76;74.83;99935.53;5033199;28;20469;-51
2023/07/03 05:48:04;;;;;;;0.40;0.20;;;;;;;17.79;74.37;99940.72;5033186;28;20495;-51
2023/07/03 05:50:31;;;;;;;0.40;0.20;;;;;;;17.70;74.48;99934.13;5033226;28;20499;-51
2023/07/03 05:52:57;;;;;;;0.40;0.30;;;;;;;17.75;73.55;99937.38;5032978;28;20463;-50
2023/07/03 05:55:24;;;;;;;0.40;0.20;;;;;;;18.03;73.28;99939.13;5032678;28;20471;-50
2023/07/03 05:57:50;;;;;;;0.40;0.20;;;;;;;18.37;71.75;99944.16;5033240;28;20523;-50
2023/07/03 06:00:17;;;;;;;0.40;0.20;;;;;;;18.21;71.09;99952.34;5032820;28;20551;-51
2023/07/03 06:02:46;;;;;;;0.40;0.20;;;;;;;18.48;70.66;99949.66;5032880;28;20578;-51
2023/07/03 06:05:13;;;;;;;0.40;0.20;;;;;;;18.81;69.19;99958.22;5029829;28;20490;-51
2023/07/03 06:07:40;;;;;;;0.40;0.20;;;;;;;19.00;67.74;99960.50;5032482;28;20495;-51
2023/07/03 06:10:07;;;;;;;0.40;0.20;;;;;;;18.92;68.32;99963.75;5029399;28;20503;-51
2023/07/03 06:12:34;;;;;;;0.50;0.40;;;;;;;18.73;68.14;99959.69;5026574;28;20468;-51
2023/07/03 06:15:01;;;;;;;0.40;0.20;;;;;;;19.31;66.35;99963.75;5032794;28;20545;-51
2023/07/03 06:17:29;;;;;;;0.40;0.20;;;;;;;19.33;65.97;99967.25;5032545;28;20459;-51
2023/07/03 06:19:55;;;;;;;0.40;0.20;;;;;;;18.99;65.91;99969.56;5032691;28;20525;-51
2023/07/03 06:22:22;;;;;;;0.40;0.20;;;;;;;19.11;66.31;99967.84;5032558;28;20555;-51
2023/07/03 06:24:49;;;;;;;0.40;0.20;;;;;;;19.45;64.11;99964.50;5032313;28;20495;-51
2023/07/03 06:27:16;;;;;;;0.40;0.20;;;;;;;19.63;63.02;99969.63;5032337;28;20496;-51
2023/07/03 06:29:42;;;;;;;0.40;0.20;;;;;;;19.67;61.92;99973.81;5031943;28;20467;-51
2023/07/03 06:32:10;;;;;;;0.40;0.20;;;;;;;19.69;62.79;99970.03;5033429;28;20869;-51
2023/07/03 06:34:37;;;;;;;0.40;0.20;;;;;;;19.90;61.81;99977.59;5032306;28;20488;-51
2023/07/03 06:37:05;;;;;;;0.50;0.20;;;;;;;19.59;62.02;99974.34;5031939;28;20456;-51
2023/07/03 06:39:38;;;;;;;0.50;0.20;;;;;;;19.83;62.20;99972.59;5032269;28;20498;-51
2023/07/03 06:42:05;;;;;;;0.40;0.20;;;;;;;19.95;61.63;99978.97;5032432;28;20460;-51
2023/07/03 06:44:32;;;;;;;0.50;0.20;;;;;;;20.61;59.05;99977.69;5032215;28;20487;-51
2023/07/03 06:46:58;;;;;;;0.50;0.20;;;;;;;20.17;58.88;99977.41;5031969;28;20569;-51
2023/07/03 06:49:28;;;;;;;0.40;0.20;;;;;;;20.01;59.45;99978.53;5031952;28;20939;-51
2023/07/03 06:51:56;;;;;;;0.40;0.20;;;;;;;20.19;59.31;99976.31;5032145;28;20467;-51
2023/07/03 06:54:23;;;;;;;0.50;0.20;;;;;;;20.28;58.51;99980.16;5032256;28;20519;-51
2023/07/03 06:56:49;;;;;;;0.50;0.20;;;;;;;20.19;58.73;99972.75;5032151;28;20495;-52
2023/07/03 06:59:16;;;;;;;0.50;0.20;;;;;;;20.36;58.00;99977.78;5032117;28;20589;-52
2023/07/03 07:01:42;;;;;;;0.40;0.20;;;;;;;20.40;56.69;99976.56;5031902;28;20882;-51
2023/07/03 07:04:09;;;;;;;0.50;0.20;;;;;;;20.62;56.56;99973.16;5032063;28;20504;-52
2023/07/03 07:06:38;;;;;;;0.43;0.20;;;;;;;20.29;55.82;99968.41;5031908;28;20850;-52
2023/07/03 07:09:05;;;;;;;0.50;0.20;;;;;;;20.20;56.34;99971.78;5031761;28;20491;-52
2023/07/03 07:11:34;;;;;;;0.50;0.20;;;;;;;20.48;54.97;99976.88;5031517;28;20478;-51
2023/07/03 07:14:03;;;;;;;0.50;0.20;;;;;;;20.66;53.30;99969.25;5031872;28;20484;-52
2023/07/03 07:16:34;;;;;;;0.40;0.20;;;;;;;20.74;53.78;99961.44;5031692;28;20471;-52
2023/07/03 07:19:04;;;;;;;0.40;0.20;;;;;;;21.08;53.94;99956.13;5032104;28;20526;-52
2023/07/03 07:21:33;;;;;;;0.40;0.20;;;;;;;21.49;52.15;99952.91;5031595;28;20480;-52
2023/07/03 07:24:20;;;;;;;0.50;0.20;;;;;;;22.01;51.14;99956.84;5031558;28;20491;-52
2023/07/03 07:26:48;;;;;;;0.47;0.20;;;;;;;22.13;49.31;99953.19;5032214;28;20469;-51
2023/07/03 07:29:15;;;;;;;0.50;0.20;;;;;;;22.15;48.67;99949.34;5032670;28;20474;-52
2023/07/03 07:31:42;;;;;;;0.50;0.20;;;;;;;21.80;49.94;99948.63;5032207;28;20467;-52
2023/07/03 07:34:10;;;;;;;0.43;0.20;;;;;;;21.80;48.71;99948.63;5032770;28;20867;-52
2023/07/03 07:36:38;;;;;;;0.50;0.20;;;;;;;21.80;48.62;99945.94;5031776;28;20471;-52
2023/07/03 07:39:05;;;;;;;0.40;0.20;;;;;;;21.69;48.75;99938.69;5032199;28;20503;-52
2023/07/03 07:41:32;;;;;;;0.40;0.20;;;;;;;21.77;48.75;99936.19;5035849;28;20475;-52
2023/07/03 07:43:58;;;;;;;0.50;0.20;;;;;;;21.87;49.23;99930.91;5035648;28;20491;-52
2023/07/03 07:46:29;;;;;;;0.50;0.20;;;;;;;21.98;46.79;99933.59;5035251;28;20988;-52
2023/07/03 07:48:57;;;;;;;0.50;0.20;;;;;;;21.97;47.35;99933.75;5035424;28;20499;-51
2023/07/03 07:51:24;;;;;;;0.50;0.20;;;;;;;21.55;47.63;99942.47;5035410;28;20467;-52
2023/07/03 07:53:55;;;;;;;0.50;0.20;;;;;;;21.55;48.08;99938.91;5035263;28;20491;-52
2023/07/03 07:56:23;;;;;;;0.40;0.20;;;;;;;21.51;48.49;99946.41;5035867;28;20463;-52
2023/07/03 07:58:50;;;;;;;0.50;0.20;;;;;;;21.53;48.10;99949.00;5035599;28;20832;-51
2023/07/03 08:01:16;;;;;;;0.50;0.20;;;;;;;21.43;48.68;99940.75;5035283;28;20467;-52
2023/07/03 08:03:43;;;;;;;0.50;0.20;;;;;;;21.57;48.11;99945.06;5034956;28;21054;-52
2023/07/03 08:06:11;;;;;;;0.50;0.20;;;;;;;21.78;48.62;99943.31;5034965;28;20463;-52
2023/07/03 08:08:38;;;;;;;0.50;0.20;;;;;;;21.46;48.49;99943.22;5034956;28;20523;-52
2023/07/03 08:11:07;;;;;;;0.40;0.20;;;;;;;21.52;48.85;99939.16;5035214;28;20493;-52
2023/07/03 08:13:35;;;;;;;0.50;0.20;;;;;;;21.44;47.96;99942.47;5017423;28;20954;-52
2023/07/03 08:16:01;;;;;;;0.50;0.20;;;;;;;21.42;47.93;99944.44;5035131;28;20478;-52
2023/07/03 08:18:28;;;;;;;0.50;0.20;;;;;;;21.36;47.86;99941.34;5034865;28;20478;-52
2023/07/03 08:20:55;;;;;;;0.50;0.20;;;;;;;21.80;47.09;99946.78;5034635;28;20463;-52
2023/07/03 08:23:22;;;;;;;0.50;0.20;;;;;;;21.50;47.07;99941.09;5035285;28;21019;-53
2023/07/03 08:25:51;;;;;;;0.50;0.20;;;;;;;21.65;46.89;99942.59;5035101;28;21001;-53
2023/07/03 08:28:19;;;;;;;0.50;0.20;;;;;;;22.01;46.26;99933.34;5017052;28;20494;-53
2023/07/03 08:30:46;;;;;;;0.50;0.20;;;;;;;22.13;46.40;99936.94;5034786;28;20784;-53
2023/07/03 08:33:13;;;;;;;0.50;0.20;;;;;;;22.08;46.87;99937.31;5035902;28;21081;-53
2023/07/03 08:35:41;;;;;;;0.50;0.20;;;;;;;22.23;46.43;99940.63;5034426;28;20468;-52
2023/07/03 08:38:10;;;;;;;0.43;0.20;;;;;;;22.51;45.60;99946.44;5034251;28;20975;-52
2023/07/03 08:40:37;;;;;;;0.50;0.20;;;;;;;22.52;45.20;99951.72;5034411;28;20506;-53
2023/07/03 08:43:07;;;;;;;0.50;0.20;;;;;;;22.54;45.70;99949.75;5034081;28;20971;-53
2023/07/03 08:45:41;;;;;;;0.50;0.30;;;;;;;22.41;46.70;99949.06;5032586;28;20874;-53
2023/07/03 08:48:16;;;;;;;0.50;0.20;;;;;;;22.48;46.75;99947.56;5034236;28;20503;-53
2023/07/03 08:50:46;;;;;;;0.50;0.20;;;;;;;22.71;47.13;99954.59;5027138;28;20862;-53
2023/07/03 08:53:18;;;;;;;0.50;0.20;;;;;;;23.43;46.40;99936.72;5033980;28;20526;-53
2023/07/03 08:55:51;;;;;;;0.50;0.20;;;;;;;23.70;45.18;99934.31;5034480;28;20495;-52
2023/07/03 08:58:17;;;;;;;0.50;0.20;;;;;;;23.49;45.54;99944.34;5034007;28;20526;-53
2023/07/03 09:00:56;;;;;;;0.50;0.30;;;;;;;23.47;45.95;99935.47;5034145;28;20450;-53
2023/07/03 09:03:52;;;;;;;0.50;0.20;;;;;;;23.72;45.47;99929.63;5033861;28;20479;-53
2023/07/03 09:06:24;;;;;;;0.50;0.20;;;;;;;23.87;44.84;99925.56;5033640;28;20844;-53
2023/07/03 09:09:00;;;;;;;0.50;0.20;;;;;;;23.58;46.15;99930.88;5016027;28;20927;-53
2023/07/03 09:11:34;;;;;;;0.50;0.20;;;;;;;23.34;47.00;99931.13;5033782;28;20505;-53
2023/07/03 09:14:02;;;;;;;0.50;0.20;;;;;;;23.17;47.55;99925.47;5033761;28;20483;-51
2023/07/03 09:16:30;;;;;;;0.50;0.20;;;;;;;23.26;48.43;99930.94;5033600;28;20464;-53
2023/07/03 09:19:04;;;;;;;0.50;0.20;;;;;;;22.80;49.47;99946.69;5033819;28;20471;-53
2023/07/03 09:21:33;;;;;;;0.50;0.20;;;;;;;22.89;49.25;99941.41;5033459;28;20497;-53
2023/07/03 09:24:05;;;;;;;0.50;0.20;;;;;;;22.71;48.43;99942.91;5033157;28;20498;-51
2023/07/03 09:26:38;;;;;;;0.50;0.20;;;;;;;22.79;48.78;99950.41;5033475;28;20508;-51
2023/07/03 09:29:05;;;;;;;0.50;0.20;;;;;;;22.58;49.08;99953.91;5033398;28;20496;-51
2023/07/03 09:31:33;;;;;;;1.33;1.33;;;;;;;22.55;48.84;99948.75;5033483;28;20460;-51
2023/07/03 09:33:59;;;;;;;0.50;0.20;;;;;;;22.84;47.91;99962.59;5034230;28;20541;-52
2023/07/03 09:36:31;;;;;;;0.50;0.20;;;;;;;22.57;47.79;99960.31;5033043;28;20502;-51
2023/07/03 09:39:11;;;;;;;0.50;0.20;;;;;;;22.45;47.50;99961.34;5033404;28;20575;-51
2023/07/03 09:41:39;;;;;;;0.50;0.20;;;;;;;22.71;46.63;99959.16;5026437;28;20471;-51
2023/07/03 09:44:10;;;;;;;0.50;0.20;;;;;;;22.69;46.83;99959.28;5029386;28;20549;-52
2023/07/03 09:46:36;;;;;;;0.50;0.20;;;;;;;22.40;46.48;99964.44;5027348;28;20949;-51
2023/07/03 09:49:04;;;;;;;0.50;0.20;;;;;;;22.52;46.15;99962.56;5026824;28;20528;-50
2023/07/03 09:51:31;;;;;;;0.50;0.20;;;;;;;22.70;47.13;99952.03;5032959;28;20464;-51
2023/07/03 09:54:06;;;;;;;0.50;0.20;;;;;;;22.61;49.52;99967.19;5032958;28;20511;-51
2023/07/03 09:56:32;;;;;;;0.50;0.20;;;;;;;22.68;50.31;99970.28;5032948;28;20494;-51
2023/07/03 09:59:03;;;;;;;0.50;0.20;;;;;;;22.92;50.14;99970.94;5032779;28;20510;-51
2023/07/03 10:01:32;;;;;;;0.40;0.20;;;;;;;23.18;50.96;99963.28;5032776;28;20498;-51
2023/07/03 10:04:06;;;;;;;0.50;0.30;;;;;;;22.62;52.16;99970.81;5031451;28;20959;-51
2023/07/03 10:06:37;;;;;;;0.50;0.20;;;;;;;22.67;52.81;99966.69;5032612;28;20463;-51
2023/07/03 10:09:06;;;;;;;0.40;0.20;;;;;;;22.79;50.99;99969.38;5032646;28;20495;-51
2023/07/03 10:11:52;;;;;;;0.50;0.20;;;;;;;22.84;51.03;99964.44;5032609;28;20483;-52
2023/07/03 10:14:23;;;;;;;0.50;0.30;;;;;;;23.05;50.03;99968.91;5028306;28;20501;-50
2023/07/03 10:16:51;;;;;;;0.50;0.20;;;;;;;23.15;51.32;99970.81;5032431;28;20975;-51
2023/07/03 10:19:20;;;;;;;0.50;0.20;;;;;;;23.15;49.90;99962.69;5032384;28;20964;-51
2023/07/03 10:21:47;;;;;;;0.50;0.20;;;;;;;23.13;49.74;99960.09;5032304;28;20542;-50
2023/07/03 10:24:14;;;;;;;0.50;0.20;;;;;;;23.28;49.19;99964.19;5032076;28;20496;-51
2023/07/03 10:26:50;;;;;;;0.50;0.20;;;;;;;22.74;50.70;99978.72;5032052;28;20901;-51
2023/07/03 10:29:26;;;;;;;0.50;0.20;;;;;;;22.93;50.34;99971.81;5014615;28;20526;-51
2023/07/03 10:31:58;;;;;;;0.50;0.20;;;;;;;23.19;48.08;99970.44;5032054;28;20465;-51
2023/07/03 10:35:13;;;;;;;0.50;0.20;;;;;;;23.04;47.51;99969.03;5026842;28;20566;-51
2023/07/03 10:38:00;;;;;;;0.50;0.20;;;;;;;23.43;46.79;99961.16;5029003;28;20518;-51
2023/07/03 10:40:36;;;;;;;0.50;0.20;;;;;;;23.59;45.85;99954.28;5032137;28;20467;-51
2023/07/03 10:43:05;;;;;;;0.50;0.20;;;;;;;24.24;44.03;99963.81;5032198;28;20459;-51
2023/07/03 10:45:36;;;;;;;0.50;0.20;;;;;;;24.11;44.81;99948.75;5032159;28;20471;-51
2023/07/03 10:48:10;;;;;;;0.50;0.20;;;;;;;24.15;43.67;99955.66;5032145;28;20495;-51
2023/07/03 10:50:51;;;;;;;0.40;0.20;;;;;;;23.72;44.13;99945.94;5028553;28;20538;-51
2023/07/03 10:53:31;;;;;;;0.50;0.30;;;;;;;23.47;44.29;99947.19;5027709;28;20570;-51
2023/07/03 10:56:23;;;;;;;0.50;0.20;;;;;;;24.08;44.68;99943.59;5032024;28;20470;-51
2023/07/03 10:58:57;;;;;;;0.50;0.20;;;;;;;24.14;44.61;99943.06;5032208;28;20525;-51
2023/07/03 11:02:26;;;;;;;0.50;0.30;;;;;;;23.81;45.05;99931.50;5032000;28;20455;-51
2023/07/03 11:05:26;;;;;;;0.50;0.30;;;;;;;23.43;45.51;99931.28;4950152;28;20497;-51
2023/07/03 11:08:07;;;;;;;0.50;0.20;;;;;;;23.61;45.89;99918.88;5031908;28;20561;-52
2023/07/03 11:10:48;;;;;;;0.47;0.20;;;;;;;23.41;45.35;99922.44;5027101;28;20467;-51
2023/07/03 11:13:23;;;;;;;0.50;0.20;;;;;;;23.66;44.29;99918.44;5025416;28;20502;-51
2023/07/03 11:16:10;;;;;;;0.50;0.20;;;;;;;23.57;44.25;99921.00;5035210;28;20498;-51
2023/07/03 11:19:07;;;;;;;0.50;0.50;;;;;;;24.44;42.03;99917.69;5036249;28;20517;-51
2023/07/03 11:21:36;;;;;;;0.50;0.30;;;;;;;24.69;41.88;99910.84;5032401;28;20468;-51
2023/07/03 11:24:22;;;;;;;0.50;0.20;;;;;;;24.94;40.82;99903.94;5035370;28;20945;-51
2023/07/03 11:27:09;;;;;;;0.50;0.27;;;;;;;25.07;39.32;99918.13;5035941;28;20467;-51
2023/07/03 11:29:38;;;;;;;0.50;0.20;;;;;;;24.96;39.29;99930.00;5032282;28;20962;-52
2023/07/03 11:32:07;;;;;;;0.50;0.30;;;;;;;24.76;40.37;99920.13;5036525;28;20478;-51
2023/07/03 11:34:35;;;;;;;0.50;0.20;;;;;;;25.06;38.95;99908.25;5039425;28;20466;-51
2023/07/03 11:37:32;;;;;;;0.50;0.27;;;;;;;24.66;40.41;99924.69;5035855;28;20502;-51
2023/07/03 11:40:24;;;;;;;0.50;0.23;;;;;;;24.57;40.01;99909.28;5031329;28;20864;-51
2023/07/03 11:43:28;;;;;;;0.50;0.30;;;;;;;24.15;40.36;99914.91;5036444;28;20528;-53
2023/07/03 11:45:57;;;;;;;0.50;0.30;;;;;;;24.22;40.12;99911.47;5013650;28;20467;-52
2023/07/03 11:48:31;;;;;;;0.50;0.30;;;;;;;24.42;40.23;99898.81;5035343;28;20585;-52